Time;durP1;ratioP1;P1;durP2;ratioP2;P2;SDS_P1;SDS_P2;PMS_P1;PMS_P2;Temp;Humidity;BMP_temperature;BMP_pressure;BME280_temperature;BME280_humidity;BME280_pressure;Samples;Min_cycle;Max_cycle;Signal;HPM_P1;HPM_P2
2022/05/06 00:01:51;;;;;;;0.00;0.00;;;9.30;99.90;;;;;;4984222;28;20413;-69
2022/05/06 00:04:17;;;;;;;0.00;0.00;;;9.30;99.90;;;;;;4983847;28;20042;-68
2022/05/06 00:06:43;;;;;;;0.00;0.00;;;9.30;99.90;;;;;;4983607;28;20066;-68
2022/05/06 00:09:09;;;;;;;0.00;0.00;;;9.40;99.90;;;;;;4983696;28;20038;-69
2022/05/06 00:11:35;;;;;;;0.00;0.00;;;9.20;99.90;;;;;;4984130;28;20468;-69
2022/05/06 00:14:01;;;;;;;0.00;0.00;;;9.10;99.90;;;;;;4982990;28;20051;-69
2022/05/06 00:16:27;;;;;;;0.00;0.00;;;9.20;99.90;;;;;;4983351;28;20513;-69
2022/05/06 00:18:54;;;;;;;0.00;0.00;;;9.10;99.90;;;;;;4983423;28;20084;-68
2022/05/06 00:21:20;;;;;;;0.00;0.00;;;9.10;99.90;;;;;;4983394;28;20513;-68
2022/05/06 00:23:46;;;;;;;0.00;0.00;;;9.10;99.90;;;;;;4982386;28;20121;-69
2022/05/06 00:26:12;;;;;;;0.00;0.00;;;9.20;99.90;;;;;;4982582;28;20430;-69
2022/05/06 00:28:38;;;;;;;0.00;0.00;;;9.20;99.90;;;;;;4983196;28;20065;-68
2022/05/06 00:31:04;;;;;;;0.00;0.00;;;9.20;99.90;;;;;;4983005;28;20043;-68
2022/05/06 00:33:31;;;;;;;0.00;0.00;;;9.20;99.90;;;;;;4983442;28;20100;-69
2022/05/06 00:36:01;;;;;;;0.00;0.00;;;9.20;99.90;;;;;;4983319;28;20042;-69
2022/05/06 00:38:29;;;;;;;0.00;0.00;;;9.30;99.90;;;;;;4983042;28;20054;-68
2022/05/06 00:40:55;;;;;;;0.00;0.00;;;9.20;99.90;;;;;;4981652;28;20104;-69
2022/05/06 00:43:21;;;;;;;0.00;0.00;;;9.10;99.90;;;;;;4980441;28;20050;-68
2022/05/06 00:45:55;;;;;;;0.00;0.00;;;9.00;99.90;;;;;;4987176;28;20536;-68
2022/05/06 00:48:25;;;;;;;0.00;0.00;;;8.90;99.90;;;;;;4988430;28;20505;-69
2022/05/06 00:50:52;;;;;;;0.00;0.00;;;8.90;99.90;;;;;;4982301;28;20046;-69
2022/05/06 00:53:18;;;;;;;0.00;0.00;;;8.90;99.90;;;;;;4983194;28;20424;-69
2022/05/06 00:55:44;;;;;;;0.00;0.00;;;8.80;99.90;;;;;;4983077;28;20045;-68
2022/05/06 00:58:11;;;;;;;0.00;0.00;;;8.80;99.90;;;;;;4981260;28;20042;-63
2022/05/06 01:00:37;;;;;;;0.00;0.00;;;8.80;99.90;;;;;;4981942;28;20050;-69
2022/05/06 01:03:02;;;;;;;0.00;0.00;;;8.70;99.90;;;;;;4982912;28;20045;-69
2022/05/06 01:05:29;;;;;;;0.00;0.00;;;8.80;99.90;;;;;;4982855;28;20489;-69
2022/05/06 01:07:56;;;;;;;0.00;0.00;;;8.80;99.90;;;;;;4982159;28;20508;-68
2022/05/06 01:10:22;;;;;;;0.00;0.00;;;8.90;99.90;;;;;;4982538;28;20038;-68
2022/05/06 01:12:48;;;;;;;0.00;0.00;;;8.80;99.90;;;;;;4965095;28;20065;-69
2022/05/06 01:15:28;;;;;;;0.00;0.00;;;8.80;99.90;;;;;;4981472;28;20060;-69
2022/05/06 01:17:57;;;;;;;0.00;0.00;;;8.80;99.90;;;;;;4994918;28;20049;-69
2022/05/06 01:20:24;;;;;;;0.00;0.00;;;8.80;99.90;;;;;;5033206;28;20377;-69
2022/05/06 01:22:52;;;;;;;0.00;0.00;;;8.80;99.90;;;;;;5001245;28;20054;-69
2022/05/06 01:25:18;;;;;;;0.00;0.00;;;8.80;99.90;;;;;;5001731;28;20033;-68
2022/05/06 01:28:13;;;;;;;0.00;0.00;;;8.80;99.90;;;;;;5000412;28;20461;-69
2022/05/06 01:30:45;;;;;;;0.00;0.00;;;8.80;99.90;;;;;;5000927;28;20045;-70
2022/05/06 01:33:14;;;;;;;0.00;0.00;;;8.90;99.90;;;;;;5001992;28;20046;-68
2022/05/06 01:35:52;;;;;;;0.00;0.00;;;8.60;99.90;;;;;;5001229;28;20096;-69
2022/05/06 01:38:44;;;;;;;0.00;0.00;;;9.20;99.90;;;;;;5001412;28;20133;-69
2022/05/06 01:41:15;;;;;;;0.00;0.00;;;8.60;99.90;;;;;;4995443;28;20061;-69
2022/05/06 01:43:50;;;;;;;0.00;0.00;;;8.60;99.90;;;;;;5001446;28;20037;-68
2022/05/06 01:46:18;;;;;;;0.00;0.00;;;8.50;99.90;;;;;;4994355;28;20401;-69
2022/05/06 01:48:46;;;;;;;0.00;0.00;;;8.50;99.90;;;;;;4984779;28;20053;-69
2022/05/06 01:51:14;;;;;;;0.00;0.00;;;8.50;99.90;;;;;;4981791;28;20061;-69
2022/05/06 01:53:41;;;;;;;0.00;0.00;;;8.60;99.90;;;;;;4981844;28;20042;-69
2022/05/06 01:56:10;;;;;;;0.00;0.00;;;8.40;99.90;;;;;;4981643;28;20095;-69
2022/05/06 01:58:36;;;;;;;0.00;0.00;;;8.40;99.90;;;;;;4981710;28;20049;-69
2022/05/06 02:01:02;;;;;;;0.00;0.00;;;8.40;99.90;;;;;;4981634;28;20433;-69
2022/05/06 02:06:12;;;;;;;0.10;0.10;;;8.40;99.90;;;;;;4980648;28;20453;-68
2022/05/06 02:08:38;;;;;;;0.00;0.00;;;8.30;99.90;;;;;;4980612;28;20098;-68
2022/05/06 02:11:05;;;;;;;0.00;0.00;;;8.20;99.90;;;;;;4981196;28;20061;-69
2022/05/06 02:13:33;;;;;;;0.00;0.00;;;8.20;99.90;;;;;;4980950;28;20089;-69
2022/05/06 02:15:59;;;;;;;0.00;0.00;;;8.20;99.90;;;;;;4981877;28;20061;-69
2022/05/06 02:18:26;;;;;;;0.00;0.00;;;8.20;99.90;;;;;;4980330;28;20054;-69
2022/05/06 02:20:54;;;;;;;0.00;0.00;;;8.20;99.90;;;;;;4980919;28;20046;-70
2022/05/06 02:23:20;;;;;;;0.00;0.00;;;8.10;99.90;;;;;;4981099;28;20188;-69
2022/05/06 02:25:45;;;;;;;0.00;0.00;;;8.10;99.90;;;;;;4981147;28;20128;-69
2022/05/06 02:28:14;;;;;;;0.00;0.00;;;8.10;99.90;;;;;;4980170;28;20093;-68
2022/05/06 02:33:25;;;;;;;0.00;0.00;;;8.10;99.90;;;;;;4980320;28;20058;-69
2022/05/06 02:35:52;;;;;;;0.00;0.00;;;8.20;99.90;;;;;;4981065;28;20046;-69
2022/05/06 02:38:18;;;;;;;0.00;0.00;;;9.20;99.90;;;;;;4979794;28;20125;-69
2022/05/06 02:40:44;;;;;;;0.00;0.00;;;8.10;99.90;;;;;;4980593;28;20038;-69
2022/05/06 02:43:10;;;;;;;0.00;0.00;;;8.10;99.90;;;;;;4980418;28;20065;-70
2022/05/06 02:45:36;;;;;;;0.00;0.00;;;8.20;99.90;;;;;;4984082;28;20073;-69
2022/05/06 02:48:02;;;;;;;0.00;0.00;;;8.10;99.90;;;;;;4989252;28;20050;-69
2022/05/06 02:50:28;;;;;;;0.00;0.00;;;8.10;99.90;;;;;;4980220;28;20061;-70
2022/05/06 02:52:54;;;;;;;0.00;0.00;;;8.00;99.90;;;;;;4980975;28;20448;-69
2022/05/06 02:55:21;;;;;;;0.00;0.00;;;8.40;99.90;;;;;;4981088;28;20146;-70
2022/05/06 02:57:47;;;;;;;0.00;0.00;;;7.90;99.90;;;;;;4980636;28;20062;-69
2022/05/06 03:00:13;;;;;;;0.00;0.00;;;7.90;99.90;;;;;;4978376;28;20704;-69
2022/05/06 03:02:40;;;;;;;0.00;0.00;;;7.90;99.90;;;;;;4981287;28;20057;-69
2022/05/06 03:05:06;;;;;;;0.00;0.00;;;7.90;99.90;;;;;;4981150;28;20050;-71
2022/05/06 03:07:32;;;;;;;0.00;0.00;;;7.90;99.90;;;;;;4979774;28;20073;-69
2022/05/06 03:09:57;;;;;;;0.00;0.00;;;7.90;99.90;;;;;;4981123;28;20035;-69
2022/05/06 03:12:26;;;;;;;0.00;0.00;;;7.80;99.90;;;;;;4980355;28;20050;-69
2022/05/06 03:14:52;;;;;;;0.00;0.00;;;8.00;99.90;;;;;;4978700;28;20054;-69
2022/05/06 03:17:18;;;;;;;0.00;0.00;;;7.70;99.90;;;;;;4979505;28;20061;-68
2022/05/06 03:19:43;;;;;;;0.00;0.00;;;8.60;99.90;;;;;;4980850;28;20046;-68
2022/05/06 03:22:09;;;;;;;0.00;0.00;;;7.70;99.90;;;;;;4980652;28;20097;-69
2022/05/06 03:24:35;;;;;;;0.00;0.00;;;7.70;99.90;;;;;;4980423;28;20054;-69
2022/05/06 03:27:00;;;;;;;0.00;0.00;;;7.70;99.90;;;;;;4980811;28;20109;-69
2022/05/06 03:29:26;;;;;;;0.00;0.00;;;7.70;99.90;;;;;;4978050;28;20116;-69
2022/05/06 03:31:56;;;;;;;0.00;0.00;;;8.00;99.90;;;;;;4980494;28;20058;-69
2022/05/06 03:34:21;;;;;;;0.00;0.00;;;7.70;99.90;;;;;;4979945;28;20472;-69
2022/05/06 03:36:47;;;;;;;0.00;0.00;;;7.70;99.90;;;;;;4980966;28;20078;-69
2022/05/06 03:39:14;;;;;;;0.00;0.00;;;7.70;99.90;;;;;;4980256;28;20052;-69
2022/05/06 03:41:39;;;;;;;0.00;0.00;;;7.70;99.90;;;;;;4979792;28;20039;-69
2022/05/06 03:44:08;;;;;;;0.00;0.00;;;7.70;99.90;;;;;;4980086;28;20109;-69
2022/05/06 03:46:34;;;;;;;0.00;0.00;;;7.70;99.90;;;;;;4990218;28;20111;-69
2022/05/06 03:49:01;;;;;;;0.00;0.00;;;7.70;99.90;;;;;;4980246;28;20359;-69
2022/05/06 03:51:28;;;;;;;0.00;0.00;;;7.60;99.90;;;;;;4979481;28;20516;-69
2022/05/06 03:53:58;;;;;;;0.00;0.00;;;7.60;99.90;;;;;;4979531;28;20047;-69
2022/05/06 03:56:24;;;;;;;0.00;0.00;;;7.60;99.90;;;;;;4980499;28;20049;-69
2022/05/06 03:58:52;;;;;;;0.00;0.00;;;7.60;99.90;;;;;;4977840;28;20110;-68
2022/05/06 04:01:19;;;;;;;0.00;0.00;;;7.50;99.90;;;;;;4980608;28;20065;-68
2022/05/06 04:03:49;;;;;;;0.00;0.00;;;7.40;99.90;;;;;;4980631;28;20050;-66
2022/05/06 04:06:15;;;;;;;0.00;0.00;;;7.90;99.90;;;;;;4982066;28;20047;-69
2022/05/06 04:08:42;;;;;;;0.00;0.00;;;7.40;99.90;;;;;;4982661;28;20054;-68
2022/05/06 04:11:10;;;;;;;0.00;0.00;;;7.40;99.90;;;;;;4984214;28;20046;-69
2022/05/06 04:13:36;;;;;;;0.00;0.00;;;7.70;99.90;;;;;;4983000;28;20039;-70
2022/05/06 04:16:03;;;;;;;0.00;0.00;;;7.40;99.90;;;;;;4983501;28;20054;-69
2022/05/06 04:18:28;;;;;;;0.00;0.00;;;7.40;99.90;;;;;;4983796;28;20046;-69
2022/05/06 04:23:39;;;;;;;0.00;0.00;;;7.60;99.90;;;;;;4984015;28;20051;-69
2022/05/06 04:26:06;;;;;;;0.00;0.00;;;7.70;99.90;;;;;;4983855;28;20046;-69
2022/05/06 04:28:33;;;;;;;0.00;0.00;;;7.80;99.90;;;;;;4982867;28;20058;-69
2022/05/06 04:30:59;;;;;;;0.00;0.00;;;7.90;99.90;;;;;;4982805;28;20089;-69
2022/05/06 04:33:26;;;;;;;0.00;0.00;;;8.00;99.90;;;;;;4983435;28;20041;-69
2022/05/06 04:35:56;;;;;;;0.00;0.00;;;8.00;99.90;;;;;;4983444;28;20057;-69
2022/05/06 04:38:23;;;;;;;0.08;0.03;;;8.10;99.90;;;;;;4982267;28;20073;-69
2022/05/06 04:40:49;;;;;;;0.00;0.00;;;8.20;99.90;;;;;;4983086;28;20038;-69
2022/05/06 04:43:18;;;;;;;0.00;0.00;;;8.40;99.90;;;;;;4982652;28;20093;-68
2022/05/06 04:45:44;;;;;;;0.00;0.00;;;8.60;99.90;;;;;;4986700;28;20054;-70
2022/05/06 04:48:11;;;;;;;0.10;0.10;;;8.80;99.90;;;;;;4998115;28;20042;-68
2022/05/06 04:50:38;;;;;;;0.20;0.10;;;8.90;99.90;;;;;;4983465;28;20129;-69
2022/05/06 04:53:09;;;;;;;0.10;0.08;;;9.30;99.90;;;;;;4983211;28;20069;-68
2022/05/06 04:55:40;;;;;;;2.35;0.65;;;9.30;99.90;;;;;;4982680;28;20446;-69
2022/05/06 04:58:06;;;;;;;0.00;0.00;;;9.40;99.90;;;;;;4983183;28;20038;-69
2022/05/06 05:00:32;;;;;;;0.17;0.17;;;9.30;99.90;;;;;;4982665;28;20043;-69
2022/05/06 05:02:59;;;;;;;0.00;0.00;;;9.30;99.90;;;;;;4982392;28;20428;-69
2022/05/06 05:05:25;;;;;;;0.00;0.00;;;9.10;99.90;;;;;;4982840;28;20205;-69
2022/05/06 05:07:51;;;;;;;0.00;0.00;;;9.10;99.90;;;;;;4983036;28;20546;-70
2022/05/06 05:10:17;;;;;;;0.00;0.00;;;9.00;99.90;;;;;;4982771;28;20137;-71
2022/05/06 05:12:43;;;;;;;0.00;0.00;;;9.00;99.90;;;;;;4981363;28;20185;-70
2022/05/06 05:15:10;;;;;;;0.00;0.00;;;9.00;99.90;;;;;;4981415;28;20079;-71
2022/05/06 05:17:35;;;;;;;0.00;0.00;;;9.00;99.90;;;;;;4983030;28;20057;-71
2022/05/06 05:20:01;;;;;;;0.00;0.00;;;9.10;99.90;;;;;;4981801;28;20397;-72
2022/05/06 05:22:28;;;;;;;0.00;0.00;;;9.10;99.90;;;;;;4982259;28;20046;-70
2022/05/06 05:24:54;;;;;;;0.00;0.00;;;9.30;99.90;;;;;;4982610;28;20046;-71
2022/05/06 05:27:21;;;;;;;0.00;0.00;;;9.20;99.90;;;;;;4982260;28;20077;-71
2022/05/06 05:29:46;;;;;;;0.00;0.00;;;8.90;99.90;;;;;;4980094;28;20050;-71
2022/05/06 05:32:12;;;;;;;0.00;0.00;;;9.40;99.90;;;;;;4982309;28;20041;-70
2022/05/06 05:34:40;;;;;;;0.00;0.00;;;9.40;99.90;;;;;;4982790;28;20050;-71
2022/05/06 05:37:06;;;;;;;0.00;0.00;;;9.40;99.90;;;;;;4981930;28;20388;-71
2022/05/06 05:39:31;;;;;;;0.00;0.00;;;9.50;99.90;;;;;;4982169;28;20034;-71
2022/05/06 05:41:57;;;;;;;0.00;0.00;;;9.50;99.90;;;;;;4982278;28;20046;-71
2022/05/06 05:49:51;;;;;;;0.00;0.00;;;9.80;99.90;;;;;;4981840;28;20134;-71
2022/05/06 05:52:17;;;;;;;0.00;0.00;;;9.90;99.90;;;;;;4981633;28;20573;-70
2022/05/06 05:54:43;;;;;;;0.00;0.00;;;9.90;99.90;;;;;;4982271;28;20129;-70
2022/05/06 05:57:08;;;;;;;0.00;0.00;;;10.10;99.90;;;;;;4982447;28;20485;-71
2022/05/06 05:59:34;;;;;;;0.00;0.00;;;10.20;99.90;;;;;;4980248;28;20048;-71
2022/05/06 06:02:02;;;;;;;0.00;0.00;;;10.20;99.90;;;;;;4980429;28;20058;-69
2022/05/06 06:04:27;;;;;;;0.00;0.00;;;10.20;99.90;;;;;;4980302;28;20058;-68
2022/05/06 06:06:53;;;;;;;0.00;0.00;;;10.80;99.90;;;;;;4981818;28;20049;-69
2022/05/06 06:09:22;;;;;;;0.00;0.00;;;10.50;99.90;;;;;;4980728;28;20042;-69
2022/05/06 06:11:48;;;;;;;0.00;0.00;;;10.60;99.90;;;;;;4980472;28;20050;-69
2022/05/06 06:14:17;;;;;;;0.00;0.00;;;10.50;99.90;;;;;;4979515;28;20054;-68
2022/05/06 06:16:43;;;;;;;0.00;0.00;;;10.90;99.90;;;;;;4981062;28;20153;-68
2022/05/06 06:19:09;;;;;;;0.00;0.00;;;10.80;99.90;;;;;;4981883;28;20493;-69
2022/05/06 06:21:35;;;;;;;0.20;0.20;;;10.90;99.90;;;;;;4981627;28;20050;-69
2022/05/06 06:24:00;;;;;;;0.10;0.10;;;10.90;99.90;;;;;;4996441;28;20096;-69
2022/05/06 06:26:27;;;;;;;0.00;0.00;;;11.00;99.90;;;;;;4980500;28;20042;-70
2022/05/06 06:28:52;;;;;;;0.00;0.00;;;11.10;99.90;;;;;;4979935;28;20220;-68
2022/05/06 06:31:18;;;;;;;0.00;0.00;;;11.30;99.90;;;;;;4981257;28;20177;-68
2022/05/06 06:33:43;;;;;;;0.00;0.00;;;11.30;99.90;;;;;;4980745;28;20043;-70
2022/05/06 06:36:09;;;;;;;0.00;0.00;;;11.30;99.90;;;;;;4981709;28;20057;-61
2022/05/06 06:38:35;;;;;;;0.00;0.00;;;11.30;99.90;;;;;;4981578;28;20192;-68
2022/05/06 06:41:01;;;;;;;0.85;0.10;;;11.50;99.90;;;;;;4981663;28;20050;-69
2022/05/06 06:43:27;;;;;;;0.00;0.00;;;11.30;99.90;;;;;;4979694;28;20046;-69
2022/05/06 06:45:53;;;;;;;1.00;0.15;;;11.40;99.90;;;;;;4986145;28;20050;-69
2022/05/06 06:48:19;;;;;;;0.00;0.00;;;11.70;99.90;;;;;;4986394;28;20061;-69
2022/05/06 06:50:45;;;;;;;0.10;0.10;;;12.30;99.90;;;;;;4980845;28;20137;-69
2022/05/06 06:53:11;;;;;;;0.00;0.00;;;12.80;99.90;;;;;;4980522;28;20134;-67
2022/05/06 06:55:37;;;;;;;0.20;0.10;;;13.30;99.90;;;;;;4981393;28;20537;-69
2022/05/06 06:58:02;;;;;;;0.00;0.00;;;13.70;99.90;;;;;;4979942;28;20053;-68
2022/05/06 07:00:28;;;;;;;0.00;0.00;;;14.00;99.90;;;;;;4978526;28;20215;-69
2022/05/06 07:02:55;;;;;;;0.17;0.13;;;14.10;99.90;;;;;;4979671;28;20089;-69
2022/05/06 07:05:22;;;;;;;0.00;0.00;;;14.40;99.90;;;;;;4980687;28;20082;-69
2022/05/06 07:13:25;;;;;;;0.00;0.00;;;14.80;99.90;;;;;;4955618;28;20405;-69
2022/05/06 07:15:50;;;;;;;0.75;0.75;;;14.50;99.90;;;;;;4980935;28;20046;-69
2022/05/06 07:18:16;;;;;;;0.00;0.00;;;14.40;99.90;;;;;;4980645;28;20278;-69
2022/05/06 07:20:42;;;;;;;0.00;0.00;;;14.40;99.90;;;;;;4980083;28;20133;-69
2022/05/06 07:23:11;;;;;;;0.10;0.10;;;14.80;99.90;;;;;;4980844;28;20042;-68
2022/05/06 07:25:37;;;;;;;0.00;0.00;;;14.90;99.90;;;;;;4980874;28;20067;-69
2022/05/06 07:28:04;;;;;;;0.00;0.00;;;14.60;99.90;;;;;;4980194;28;20049;-69
2022/05/06 07:30:29;;;;;;;0.47;0.17;;;14.50;99.90;;;;;;4979940;28;20405;-69
2022/05/06 07:32:55;;;;;;;0.15;0.15;;;14.60;99.90;;;;;;4980751;28;20043;-70
2022/05/06 07:35:21;;;;;;;0.10;0.10;;;14.90;99.90;;;;;;4980529;28;20093;-67
2022/05/06 07:37:46;;;;;;;0.20;0.20;;;15.20;99.90;;;;;;4980248;28;20046;-68
2022/05/06 07:40:12;;;;;;;0.08;0.08;;;15.20;99.90;;;;;;4983175;28;20082;-69
2022/05/06 07:42:43;;;;;;;0.38;0.20;;;14.90;99.90;;;;;;4984112;28;20046;-72
2022/05/06 07:45:11;;;;;;;0.80;0.22;;;14.70;99.90;;;;;;4987093;28;20042;-71
2022/05/06 07:47:37;;;;;;;0.00;0.00;;;15.00;99.90;;;;;;4992662;28;20046;-70
2022/05/06 07:50:03;;;;;;;0.00;0.00;;;15.40;99.90;;;;;;4984186;28;20050;-70
2022/05/06 07:52:29;;;;;;;0.15;0.13;;;15.90;99.90;;;;;;4984425;28;20227;-70
2022/05/06 07:54:54;;;;;;;0.00;0.00;;;16.10;99.90;;;;;;4983655;28;20045;-70
2022/05/06 07:57:20;;;;;;;0.10;0.10;;;15.80;99.90;;;;;;4983479;28;20386;-70
2022/05/06 07:59:46;;;;;;;0.00;0.00;;;15.60;99.90;;;;;;4987511;28;20049;-70
2022/05/06 08:04:56;;;;;;;0.00;0.00;;;15.70;99.90;;;;;;5003287;28;20096;-70
2022/05/06 08:07:22;;;;;;;0.10;0.10;;;15.90;99.90;;;;;;5003659;28;20401;-69
2022/05/06 08:09:47;;;;;;;0.38;0.30;;;15.80;99.90;;;;;;5003876;28;20117;-70
2022/05/06 08:12:13;;;;;;;0.00;0.00;;;15.70;99.90;;;;;;5001875;28;20655;-69
2022/05/06 08:14:39;;;;;;;0.10;0.10;;;15.90;99.90;;;;;;5002275;28;20517;-70
2022/05/06 08:17:05;;;;;;;0.00;0.00;;;16.30;99.90;;;;;;5003587;28;20088;-70
2022/05/06 08:19:31;;;;;;;0.30;0.20;;;16.40;99.90;;;;;;5002235;28;20049;-70
2022/05/06 08:21:56;;;;;;;0.05;0.05;;;16.50;99.90;;;;;;5003299;28;20049;-71
2022/05/06 08:24:22;;;;;;;0.65;0.47;;;16.70;99.90;;;;;;5001688;28;20042;-70
2022/05/06 08:26:49;;;;;;;0.20;0.20;;;16.60;99.90;;;;;;5003086;28;20073;-69
2022/05/06 08:29:15;;;;;;;0.28;0.15;;;16.20;99.90;;;;;;5001250;28;20049;-68
2022/05/06 08:31:41;;;;;;;0.00;0.00;;;16.30;99.90;;;;;;5002105;28;20053;-67
2022/05/06 08:34:09;;;;;;;0.15;0.15;;;16.30;99.90;;;;;;5003398;28;20049;-68
2022/05/06 08:36:45;;;;;;;0.25;0.20;;;16.00;99.90;;;;;;5002877;28;20049;-67
2022/05/06 08:39:14;;;;;;;0.03;0.03;;;16.10;99.90;;;;;;5001261;28;20626;-66
2022/05/06 08:41:41;;;;;;;0.47;0.30;;;16.20;99.90;;;;;;5002789;28;20532;-64
2022/05/06 08:52:34;;;;;;;0.10;0.10;;;16.70;99.90;;;;;;5001603;28;20398;-67
2022/05/06 08:55:01;;;;;;;0.00;0.00;;;16.80;99.90;;;;;;5001646;28;20736;-67
2022/05/06 08:57:29;;;;;;;0.75;0.57;;;17.20;99.90;;;;;;5000385;28;20042;-67
2022/05/06 08:59:54;;;;;;;0.30;0.30;;;17.10;99.90;;;;;;5002309;28;20034;-67
2022/05/06 09:02:20;;;;;;;0.30;0.30;;;16.80;99.90;;;;;;5000596;28;20400;-70
2022/05/06 09:04:47;;;;;;;0.28;0.10;;;17.00;99.90;;;;;;5002098;28;20038;-68
2022/05/06 09:07:19;;;;;;;0.08;0.08;;;17.10;99.90;;;;;;5002150;28;20052;-67
2022/05/06 09:10:13;;;;;;;0.00;0.00;;;17.10;99.90;;;;;;5002239;28;20113;-65
2022/05/06 09:12:40;;;;;;;0.30;0.30;;;16.90;99.90;;;;;;5002223;28;20137;-66
2022/05/06 09:17:51;;;;;;;0.00;0.00;;;16.90;99.90;;;;;;5001127;28;20088;-69
2022/05/06 09:20:19;;;;;;;0.22;0.22;;;16.90;99.90;;;;;;4999904;28;20078;-67
2022/05/06 09:22:45;;;;;;;0.00;0.00;;;16.90;99.90;;;;;;5000510;28;20617;-67
2022/05/06 09:25:10;;;;;;;0.00;0.00;;;16.90;99.90;;;;;;5001828;28;20112;-62
2022/05/06 09:27:36;;;;;;;0.40;0.28;;;17.10;99.90;;;;;;5001658;28;20046;-74
2022/05/06 09:30:11;;;;;;;0.00;0.00;;;16.90;99.90;;;;;;5000635;28;20050;-73
2022/05/06 09:32:37;;;;;;;0.20;0.10;;;16.90;99.90;;;;;;5002384;28;20214;-74
2022/05/06 09:35:10;;;;;;;0.10;0.10;;;16.60;99.90;;;;;;5001934;28;20121;-74
2022/05/06 09:37:40;;;;;;;0.00;0.00;;;16.90;99.90;;;;;;5000802;28;20521;-75
2022/05/06 09:40:07;;;;;;;0.10;0.10;;;17.00;99.90;;;;;;5001356;28;20457;-75
2022/05/06 09:42:37;;;;;;;0.00;0.00;;;17.40;99.90;;;;;;4999163;28;20056;-74
2022/05/06 09:45:04;;;;;;;0.00;0.00;;;17.60;99.90;;;;;;4999140;28;20462;-74
2022/05/06 09:47:32;;;;;;;0.00;0.00;;;17.70;99.90;;;;;;4989389;28;20065;-75
2022/05/06 09:49:58;;;;;;;0.00;0.00;;;17.50;99.90;;;;;;4980498;28;20046;-74
2022/05/06 09:52:23;;;;;;;0.00;0.00;;;17.20;99.90;;;;;;4983072;28;20497;-72
2022/05/06 09:54:49;;;;;;;0.85;0.47;;;17.10;99.90;;;;;;5000123;28;20038;-75
2022/05/06 09:57:18;;;;;;;0.00;0.00;;;17.50;99.90;;;;;;4999265;28;20042;-74
2022/05/06 09:59:45;;;;;;;0.00;0.00;;;17.80;99.90;;;;;;5001097;28;20107;-73
2022/05/06 10:02:11;;;;;;;0.00;0.00;;;18.40;99.90;;;;;;4998921;28;20100;-73
2022/05/06 10:04:37;;;;;;;0.00;0.00;;;18.70;99.90;;;;;;5000847;28;20528;-73
2022/05/06 10:07:07;;;;;;;0.00;0.00;;;18.90;99.90;;;;;;5001337;28;20535;-73
2022/05/06 10:09:53;;;;;;;0.00;0.00;;;19.10;99.90;;;;;;5000978;28;20037;-73
2022/05/06 10:12:21;;;;;;;0.00;0.00;;;19.10;99.90;;;;;;4999022;28;20054;-72
2022/05/06 10:14:47;;;;;;;0.00;0.00;;;19.30;99.90;;;;;;5001150;28;20054;-71
2022/05/06 10:17:48;;;;;;;0.00;0.00;;;20.10;99.90;;;;;;4999372;28;20049;-73
2022/05/06 10:20:35;;;;;;;0.00;0.00;;;20.00;99.90;;;;;;4999452;28;20058;-58
2022/05/06 10:23:11;;;;;;;0.00;0.00;;;20.20;99.90;;;;;;5001094;28;20099;-58
2022/05/06 10:25:40;;;;;;;0.00;0.00;;;20.40;99.90;;;;;;5000558;28;20058;-62
2022/05/06 10:34:11;;;;;;;0.00;0.00;;;20.70;99.90;;;;;;4999095;28;20050;-65
2022/05/06 10:36:50;;;;;;;0.00;0.00;;;20.90;99.90;;;;;;5000283;28;20133;-66
2022/05/06 10:39:36;;;;;;;0.00;0.00;;;20.50;99.90;;;;;;5000310;28;20057;-66
2022/05/06 10:42:17;;;;;;;0.10;0.10;;;20.30;99.90;;;;;;4998980;28;20048;-66
2022/05/06 10:44:49;;;;;;;0.43;0.20;;;20.40;99.90;;;;;;4997618;28;20049;-66
2022/05/06 10:47:15;;;;;;;0.00;0.00;;;20.60;99.90;;;;;;4989235;28;20397;-66
2022/05/06 10:49:46;;;;;;;0.00;0.00;;;20.40;99.90;;;;;;4998837;28;20173;-66
2022/05/06 10:52:22;;;;;;;0.00;0.00;;;20.60;99.90;;;;;;4998415;28;20038;-66
2022/05/06 10:55:00;;;;;;;0.00;0.00;;;20.80;99.90;;;;;;4998022;28;20053;-66
2022/05/06 10:57:30;;;;;;;0.00;0.00;;;20.70;99.90;;;;;;4997917;28;20057;-63
2022/05/06 11:00:00;;;;;;;0.08;0.08;;;20.50;99.90;;;;;;4999027;28;20050;-65
2022/05/06 11:02:30;;;;;;;0.00;0.00;;;19.90;99.90;;;;;;4999627;28;20089;-66
2022/05/06 11:04:58;;;;;;;0.00;0.00;;;20.20;99.90;;;;;;4998890;28;20046;-66
2022/05/06 11:07:24;;;;;;;0.10;0.10;;;20.60;99.90;;;;;;4999843;28;20049;-66
2022/05/06 11:09:53;;;;;;;0.10;0.10;;;21.10;99.90;;;;;;4998099;28;20049;-66
2022/05/06 11:12:39;;;;;;;0.00;0.00;;;20.90;99.90;;;;;;4999122;28;20097;-63
2022/05/06 11:15:30;;;;;;;0.43;0.20;;;21.20;99.90;;;;;;4982562;28;20083;-64
2022/05/06 11:17:57;;;;;;;0.00;0.00;;;21.50;99.90;;;;;;4999717;28;20145;-64
2022/05/06 11:20:26;;;;;;;0.10;0.10;;;21.70;99.90;;;;;;4998950;28;20081;-63
2022/05/06 11:22:54;;;;;;;0.08;0.08;;;21.70;99.90;;;;;;4998701;28;20133;-64
2022/05/06 11:25:22;;;;;;;0.00;0.00;;;21.30;99.90;;;;;;4998874;28;20136;-60
2022/05/06 11:27:49;;;;;;;0.00;0.00;;;21.30;99.90;;;;;;4998829;28;20056;-65
2022/05/06 11:30:19;;;;;;;0.00;0.00;;;21.30;99.90;;;;;;4998612;28;20057;-64
2022/05/06 11:32:54;;;;;;;0.00;0.00;;;21.20;99.90;;;;;;4982529;28;20069;-63
2022/05/06 11:35:25;;;;;;;0.90;0.30;;;21.60;99.90;;;;;;4997642;28;20176;-63
2022/05/06 11:37:51;;;;;;;0.00;0.00;;;21.50;99.90;;;;;;4999878;28;20132;-60
2022/05/06 11:40:34;;;;;;;0.00;0.00;;;21.60;99.90;;;;;;4999854;28;20725;-59
2022/05/06 11:43:01;;;;;;;0.00;0.00;;;21.50;99.90;;;;;;4998741;28;20054;-63
2022/05/06 11:48:13;;;;;;;0.00;0.00;;;21.60;99.90;;;;;;4992206;28;20653;-63
2022/05/06 11:50:40;;;;;;;0.05;0.05;;;22.00;99.90;;;;;;5000410;28;20046;-63
2022/05/06 11:53:08;;;;;;;0.30;0.10;;;21.90;99.90;;;;;;5000315;28;20045;-64
2022/05/06 11:55:40;;;;;;;0.00;0.00;;;21.50;99.90;;;;;;4998014;28;20041;-62
2022/05/06 11:58:07;;;;;;;0.00;0.00;;;21.70;99.90;;;;;;4999204;28;20042;-61
2022/05/06 12:00:33;;;;;;;0.08;0.00;;;21.90;99.90;;;;;;5013321;28;20045;-61
2022/05/06 12:03:09;;;;;;;0.00;0.00;;;21.80;99.90;;;;;;5019276;28;20432;-62
2022/05/06 12:05:39;;;;;;;0.00;0.00;;;21.60;99.90;;;;;;4991932;28;20046;-61
2022/05/06 12:08:06;;;;;;;0.10;0.10;;;21.50;99.90;;;;;;5000300;28;20688;-60
2022/05/06 12:10:36;;;;;;;0.00;0.00;;;21.50;99.90;;;;;;4999507;28;20044;-60
2022/05/06 12:13:10;;;;;;;0.00;0.00;;;21.60;99.90;;;;;;4998844;28;20053;-61
2022/05/06 12:15:43;;;;;;;0.10;0.10;;;21.40;99.90;;;;;;4999764;28;20037;-61
2022/05/06 12:18:19;;;;;;;0.00;0.00;;;21.50;99.90;;;;;;4999157;28;20089;-61
2022/05/06 12:20:46;;;;;;;0.00;0.00;;;21.80;99.90;;;;;;4999810;28;20071;-63
2022/05/06 12:23:13;;;;;;;0.00;0.00;;;22.00;99.90;;;;;;4999245;28;20066;-62
2022/05/06 12:25:40;;;;;;;0.00;0.00;;;21.60;99.90;;;;;;4999855;28;20046;-61
2022/05/06 12:28:18;;;;;;;0.00;0.00;;;22.10;99.90;;;;;;5003085;28;20041;-61
2022/05/06 12:30:45;;;;;;;0.00;0.00;;;21.80;99.90;;;;;;5003527;28;20046;-61
2022/05/06 12:33:15;;;;;;;0.00;0.00;;;21.60;99.90;;;;;;5001878;28;20038;-62
2022/05/06 12:35:57;;;;;;;0.05;0.05;;;21.50;99.90;;;;;;5001690;28;20068;-62
2022/05/06 12:38:44;;;;;;;0.00;0.00;;;21.40;99.90;;;;;;5001804;28;20042;-61
2022/05/06 12:41:16;;;;;;;0.00;0.00;;;21.70;99.90;;;;;;4995261;28;20364;-62
2022/05/06 12:43:42;;;;;;;0.00;0.00;;;22.10;99.90;;;;;;5002226;28;20412;-61
2022/05/06 12:46:07;;;;;;;0.00;0.00;;;22.20;99.90;;;;;;4996743;28;20045;-61
2022/05/06 12:51:17;;;;;;;0.00;0.00;;;22.60;99.90;;;;;;4982341;28;20082;-61
2022/05/06 12:53:43;;;;;;;0.00;0.00;;;22.40;99.90;;;;;;4982095;28;20098;-62
2022/05/06 12:56:17;;;;;;;0.00;0.00;;;22.40;99.90;;;;;;4983455;28;20045;-61
2022/05/06 12:58:43;;;;;;;0.00;0.00;;;22.40;99.90;;;;;;4980838;28;20049;-62
2022/05/06 13:01:09;;;;;;;0.00;0.00;;;22.40;99.90;;;;;;4983453;28;20647;-61
2022/05/06 13:03:34;;;;;;;0.00;0.00;;;22.20;99.90;;;;;;4982999;28;20046;-62
2022/05/06 13:06:00;;;;;;;0.00;0.00;;;22.50;99.90;;;;;;4982817;28;20067;-62
2022/05/06 13:08:27;;;;;;;0.00;0.00;;;22.40;99.90;;;;;;4981808;28;20053;-62
2022/05/06 13:10:53;;;;;;;0.00;0.00;;;22.60;99.90;;;;;;4981393;28;20054;-61
2022/05/06 13:13:19;;;;;;;0.10;0.00;;;22.90;99.90;;;;;;4986352;28;20493;-61
2022/05/06 13:15:44;;;;;;;0.10;0.10;;;22.90;99.90;;;;;;4988196;28;20058;-61
2022/05/06 13:18:10;;;;;;;0.00;0.00;;;23.20;99.90;;;;;;4989850;28;20061;-62
2022/05/06 13:20:36;;;;;;;0.00;0.00;;;23.30;99.90;;;;;;4988737;28;20113;-61
2022/05/06 13:23:02;;;;;;;0.00;0.00;;;23.30;99.90;;;;;;4988975;28;20563;-62
2022/05/06 13:25:28;;;;;;;0.00;0.00;;;23.10;99.90;;;;;;4988183;28;20038;-62
2022/05/06 13:27:54;;;;;;;0.00;0.00;;;23.40;99.90;;;;;;4987882;28;20050;-61
2022/05/06 13:30:20;;;;;;;0.00;0.00;;;23.20;99.90;;;;;;4988637;28;20133;-62
2022/05/06 13:32:46;;;;;;;0.00;0.00;;;23.30;99.90;;;;;;4989005;28;20038;-62
2022/05/06 13:35:12;;;;;;;0.00;0.00;;;23.50;99.90;;;;;;4988466;28;20042;-62
2022/05/06 13:37:38;;;;;;;0.00;0.00;;;23.40;99.90;;;;;;4987946;28;20625;-61
2022/05/06 13:40:04;;;;;;;0.05;0.05;;;23.50;99.90;;;;;;4987159;28;20042;-61